sensor_id;sensor_type;location;lat;lon;timestamp;P1;P2;P0
72023;PMS5003;59889;50.700;5.440;2023-09-30T00:01:19;1;1;
72023;PMS5003;59889;50.700;5.440;2023-09-30T00:03:45;1;1;
72023;PMS5003;59889;50.700;5.440;2023-09-30T00:06:10;0;0;
72023;PMS5003;59889;50.700;5.440;2023-09-30T00:08:36;2;2;
72023;PMS5003;59889;50.700;5.440;2023-09-30T00:11:02;0;0;
72023;PMS5003;59889;50.700;5.440;2023-09-30T00:13:28;0;0;
72023;PMS5003;59889;50.700;5.440;2023-09-30T00:15:54;1;1;
72023;PMS5003;59889;50.700;5.440;2023-09-30T00:18:20;1;1;
72023;PMS5003;59889;50.700;5.440;2023-09-30T00:20:45;1;1;
72023;PMS5003;59889;50.700;5.440;2023-09-30T00:23:11;1;1;
72023;PMS5003;59889;50.700;5.440;2023-09-30T00:25:37;2;2;
72023;PMS5003;59889;50.700;5.440;2023-09-30T00:28:03;0;0;
72023;PMS5003;59889;50.700;5.440;2023-09-30T00:30:29;1;1;
72023;PMS5003;59889;50.700;5.440;2023-09-30T00:32:54;1;1;
72023;PMS5003;59889;50.700;5.440;2023-09-30T00:35:20;1;1;
72023;PMS5003;59889;50.700;5.440;2023-09-30T00:37:46;1;1;
72023;PMS5003;59889;50.700;5.440;2023-09-30T00:40:12;1;1;
72023;PMS5003;59889;50.700;5.440;2023-09-30T00:42:38;1;1;
72023;PMS5003;59889;50.700;5.440;2023-09-30T00:45:04;1;1;
72023;PMS5003;59889;50.700;5.440;2023-09-30T00:47:29;1;1;
72023;PMS5003;59889;50.700;5.440;2023-09-30T00:49:55;2;2;
72023;PMS5003;59889;50.700;5.440;2023-09-30T00:52:21;2;2;
72023;PMS5003;59889;50.700;5.440;2023-09-30T00:54:47;1;1;
72023;PMS5003;59889;50.700;5.440;2023-09-30T00:57:13;2;2;
72023;PMS5003;59889;50.700;5.440;2023-09-30T00:59:38;0;0;
72023;PMS5003;59889;50.700;5.440;2023-09-30T01:02:04;2;1;
72023;PMS5003;59889;50.700;5.440;2023-09-30T01:04:30;0;0;
72023;PMS5003;59889;50.700;5.440;2023-09-30T01:06:56;2;2;
72023;PMS5003;59889;50.700;5.440;2023-09-30T01:09:22;1;1;
72023;PMS5003;59889;50.700;5.440;2023-09-30T01:11:48;2;2;
72023;PMS5003;59889;50.700;5.440;2023-09-30T01:16:39;1;1;
72023;PMS5003;59889;50.700;5.440;2023-09-30T01:19:05;1;0;
72023;PMS5003;59889;50.700;5.440;2023-09-30T01:21:33;1;1;
72023;PMS5003;59889;50.700;5.440;2023-09-30T01:23:57;0;0;
72023;PMS5003;59889;50.700;5.440;2023-09-30T01:26:23;3;2;
72023;PMS5003;59889;50.700;5.440;2023-09-30T01:28:48;1;1;
72023;PMS5003;59889;50.700;5.440;2023-09-30T01:31:14;1;1;
72023;PMS5003;59889;50.700;5.440;2023-09-30T01:33:40;1;1;
72023;PMS5003;59889;50.700;5.440;2023-09-30T01:36:06;1;1;
72023;PMS5003;59889;50.700;5.440;2023-09-30T01:38:32;1;1;
72023;PMS5003;59889;50.700;5.440;2023-09-30T01:40:57;0;0;
72023;PMS5003;59889;50.700;5.440;2023-09-30T01:43:23;0;0;
72023;PMS5003;59889;50.700;5.440;2023-09-30T01:45:49;0;0;
72023;PMS5003;59889;50.700;5.440;2023-09-30T01:48:15;2;2;
72023;PMS5003;59889;50.700;5.440;2023-09-30T01:50:41;1;1;
72023;PMS5003;59889;50.700;5.440;2023-09-30T01:53:07;1;1;
72023;PMS5003;59889;50.700;5.440;2023-09-30T01:55:32;0;0;
72023;PMS5003;59889;50.700;5.440;2023-09-30T01:57:58;1;1;
72023;PMS5003;59889;50.700;5.440;2023-09-30T02:00:24;1;1;
72023;PMS5003;59889;50.700;5.440;2023-09-30T02:02:50;0;0;
72023;PMS5003;59889;50.700;5.440;2023-09-30T02:05:16;0;0;
72023;PMS5003;59889;50.700;5.440;2023-09-30T02:07:41;0;0;
72023;PMS5003;59889;50.700;5.440;2023-09-30T02:10:08;1;1;
72023;PMS5003;59889;50.700;5.440;2023-09-30T02:12:33;2;1;
72023;PMS5003;59889;50.700;5.440;2023-09-30T02:14:59;1;1;
72023;PMS5003;59889;50.700;5.440;2023-09-30T02:17:25;1;1;
72023;PMS5003;59889;50.700;5.440;2023-09-30T02:19:51;1;1;
72023;PMS5003;59889;50.700;5.440;2023-09-30T02:22:16;0;0;
72023;PMS5003;59889;50.700;5.440;2023-09-30T02:24:42;1;1;
72023;PMS5003;59889;50.700;5.440;2023-09-30T02:27:08;1;1;
72023;PMS5003;59889;50.700;5.440;2023-09-30T02:29:34;1;1;
72023;PMS5003;59889;50.700;5.440;2023-09-30T02:32:00;0;0;
72023;PMS5003;59889;50.700;5.440;2023-09-30T02:34:26;2;2;
72023;PMS5003;59889;50.700;5.440;2023-09-30T02:36:52;0;0;
72023;PMS5003;59889;50.700;5.440;2023-09-30T02:39:17;1;1;
72023;PMS5003;59889;50.700;5.440;2023-09-30T02:41:43;1;1;
72023;PMS5003;59889;50.700;5.440;2023-09-30T02:44:09;1;1;
72023;PMS5003;59889;50.700;5.440;2023-09-30T02:46:35;1;1;
72023;PMS5003;59889;50.700;5.440;2023-09-30T02:49:00;0;0;
72023;PMS5003;59889;50.700;5.440;2023-09-30T02:51:26;1;1;
72023;PMS5003;59889;50.700;5.440;2023-09-30T02:53:52;0;0;
72023;PMS5003;59889;50.700;5.440;2023-09-30T02:56:18;1;1;
72023;PMS5003;59889;50.700;5.440;2023-09-30T02:58:44;1;1;
72023;PMS5003;59889;50.700;5.440;2023-09-30T03:01:11;1;1;
72023;PMS5003;59889;50.700;5.440;2023-09-30T03:03:35;0;0;
72023;PMS5003;59889;50.700;5.440;2023-09-30T03:06:01;1;1;
72023;PMS5003;59889;50.700;5.440;2023-09-30T03:08:27;1;1;
72023;PMS5003;59889;50.700;5.440;2023-09-30T03:10:53;0;0;
72023;PMS5003;59889;50.700;5.440;2023-09-30T03:13:19;1;1;
72023;PMS5003;59889;50.700;5.440;2023-09-30T03:15:45;1;1;
72023;PMS5003;59889;50.700;5.440;2023-09-30T03:18:10;1;1;
72023;PMS5003;59889;50.700;5.440;2023-09-30T03:20:36;1;1;
72023;PMS5003;59889;50.700;5.440;2023-09-30T03:23:02;1;1;
72023;PMS5003;59889;50.700;5.440;2023-09-30T03:25:28;1;1;
72023;PMS5003;59889;50.700;5.440;2023-09-30T03:27:54;1;1;
72023;PMS5003;59889;50.700;5.440;2023-09-30T03:30:20;1;1;
72023;PMS5003;59889;50.700;5.440;2023-09-30T03:32:45;1;1;
72023;PMS5003;59889;50.700;5.440;2023-09-30T03:35:11;1;1;
72023;PMS5003;59889;50.700;5.440;2023-09-30T03:37:37;1;1;
72023;PMS5003;59889;50.700;5.440;2023-09-30T03:40:03;1;1;
72023;PMS5003;59889;50.700;5.440;2023-09-30T03:42:29;0;0;
72023;PMS5003;59889;50.700;5.440;2023-09-30T03:44:55;1;1;
72023;PMS5003;59889;50.700;5.440;2023-09-30T03:47:20;1;1;
72023;PMS5003;59889;50.700;5.440;2023-09-30T03:49:46;2;1;
72023;PMS5003;59889;50.700;5.440;2023-09-30T03:52:12;1;1;
72023;PMS5003;59889;50.700;5.440;2023-09-30T03:54:38;1;1;
72023;PMS5003;59889;50.700;5.440;2023-09-30T03:57:04;1;1;
72023;PMS5003;59889;50.700;5.440;2023-09-30T03:59:30;1;1;
72023;PMS5003;59889;50.700;5.440;2023-09-30T04:01:55;1;1;
72023;PMS5003;59889;50.700;5.440;2023-09-30T04:04:21;1;1;
72023;PMS5003;59889;50.700;5.440;2023-09-30T04:06:47;1;1;
72023;PMS5003;59889;50.700;5.440;2023-09-30T04:09:13;1;1;
72023;PMS5003;59889;50.700;5.440;2023-09-30T04:11:39;0;0;
72023;PMS5003;59889;50.700;5.440;2023-09-30T04:14:05;0;0;
72023;PMS5003;59889;50.700;5.440;2023-09-30T04:16:31;1;1;
72023;PMS5003;59889;50.700;5.440;2023-09-30T04:18:56;0;0;
72023;PMS5003;59889;50.700;5.440;2023-09-30T04:21:22;1;1;
72023;PMS5003;59889;50.700;5.440;2023-09-30T04:23:48;1;1;
72023;PMS5003;59889;50.700;5.440;2023-09-30T04:26:14;1;1;
72023;PMS5003;59889;50.700;5.440;2023-09-30T04:28:39;2;2;
72023;PMS5003;59889;50.700;5.440;2023-09-30T04:31:05;1;1;
72023;PMS5003;59889;50.700;5.440;2023-09-30T04:33:31;0;0;
72023;PMS5003;59889;50.700;5.440;2023-09-30T04:35:57;1;1;
72023;PMS5003;59889;50.700;5.440;2023-09-30T04:38:23;1;1;
72023;PMS5003;59889;50.700;5.440;2023-09-30T04:40:48;0;0;
72023;PMS5003;59889;50.700;5.440;2023-09-30T04:43:15;0;0;
72023;PMS5003;59889;50.700;5.440;2023-09-30T04:45:40;1;1;
72023;PMS5003;59889;50.700;5.440;2023-09-30T04:48:06;1;1;
72023;PMS5003;59889;50.700;5.440;2023-09-30T04:50:32;1;1;
72023;PMS5003;59889;50.700;5.440;2023-09-30T04:52:58;1;1;
72023;PMS5003;59889;50.700;5.440;2023-09-30T04:55:23;1;1;
72023;PMS5003;59889;50.700;5.440;2023-09-30T04:57:49;1;1;
72023;PMS5003;59889;50.700;5.440;2023-09-30T05:00:16;0;0;
72023;PMS5003;59889;50.700;5.440;2023-09-30T05:02:41;3;3;
72023;PMS5003;59889;50.700;5.440;2023-09-30T05:05:07;3;3;
72023;PMS5003;59889;50.700;5.440;2023-09-30T05:07:33;5;4;
72023;PMS5003;59889;50.700;5.440;2023-09-30T05:09:58;3;3;
72023;PMS5003;59889;50.700;5.440;2023-09-30T05:12:24;3;3;
72023;PMS5003;59889;50.700;5.440;2023-09-30T05:14:50;2;2;
72023;PMS5003;59889;50.700;5.440;2023-09-30T05:17:16;6;5;
72023;PMS5003;59889;50.700;5.440;2023-09-30T05:19:42;4;4;
72023;PMS5003;59889;50.700;5.440;2023-09-30T05:22:08;5;4;
72023;PMS5003;59889;50.700;5.440;2023-09-30T05:24:33;3;3;
72023;PMS5003;59889;50.700;5.440;2023-09-30T05:26:59;4;3;
72023;PMS5003;59889;50.700;5.440;2023-09-30T05:29:25;3;3;
72023;PMS5003;59889;50.700;5.440;2023-09-30T05:31:51;3;3;
72023;PMS5003;59889;50.700;5.440;2023-09-30T05:34:16;5;5;
72023;PMS5003;59889;50.700;5.440;2023-09-30T05:36:42;6;4;
72023;PMS5003;59889;50.700;5.440;2023-09-30T05:39:08;4;4;
72023;PMS5003;59889;50.700;5.440;2023-09-30T05:41:34;5;4;
72023;PMS5003;59889;50.700;5.440;2023-09-30T05:44:00;5;4;
72023;PMS5003;59889;50.700;5.440;2023-09-30T05:46:26;6;5;
72023;PMS5003;59889;50.700;5.440;2023-09-30T05:48:52;5;5;
72023;PMS5003;59889;50.700;5.440;2023-09-30T05:51:17;6;5;
72023;PMS5003;59889;50.700;5.440;2023-09-30T05:53:43;2;2;
72023;PMS5003;59889;50.700;5.440;2023-09-30T05:56:09;4;4;
72023;PMS5003;59889;50.700;5.440;2023-09-30T05:58:35;5;5;
72023;PMS5003;59889;50.700;5.440;2023-09-30T06:01:01;4;4;
72023;PMS5003;59889;50.700;5.440;2023-09-30T06:03:27;4;4;
72023;PMS5003;59889;50.700;5.440;2023-09-30T06:05:53;4;4;
72023;PMS5003;59889;50.700;5.440;2023-09-30T06:08:19;4;4;
72023;PMS5003;59889;50.700;5.440;2023-09-30T06:10:44;3;3;
72023;PMS5003;59889;50.700;5.440;2023-09-30T06:13:10;6;5;
72023;PMS5003;59889;50.700;5.440;2023-09-30T06:15:36;5;4;
72023;PMS5003;59889;50.700;5.440;2023-09-30T06:18:02;4;4;
72023;PMS5003;59889;50.700;5.440;2023-09-30T06:20:28;3;3;
72023;PMS5003;59889;50.700;5.440;2023-09-30T06:22:53;6;6;
72023;PMS5003;59889;50.700;5.440;2023-09-30T06:25:20;7;6;
72023;PMS5003;59889;50.700;5.440;2023-09-30T06:27:45;5;5;
72023;PMS5003;59889;50.700;5.440;2023-09-30T06:30:11;7;7;
72023;PMS5003;59889;50.700;5.440;2023-09-30T06:32:37;6;6;
72023;PMS5003;59889;50.700;5.440;2023-09-30T06:35:03;8;7;
72023;PMS5003;59889;50.700;5.440;2023-09-30T06:37:29;5;5;
72023;PMS5003;59889;50.700;5.440;2023-09-30T06:39:55;6;6;
72023;PMS5003;59889;50.700;5.440;2023-09-30T06:42:20;5;4;
72023;PMS5003;59889;50.700;5.440;2023-09-30T06:44:46;7;7;
72023;PMS5003;59889;50.700;5.440;2023-09-30T06:47:12;5;4;
72023;PMS5003;59889;50.700;5.440;2023-09-30T06:49:38;7;5;
72023;PMS5003;59889;50.700;5.440;2023-09-30T06:52:04;6;6;
72023;PMS5003;59889;50.700;5.440;2023-09-30T06:54:30;7;7;
72023;PMS5003;59889;50.700;5.440;2023-09-30T06:56:56;6;6;
72023;PMS5003;59889;50.700;5.440;2023-09-30T06:59:21;5;5;
72023;PMS5003;59889;50.700;5.440;2023-09-30T07:01:47;5;5;
72023;PMS5003;59889;50.700;5.440;2023-09-30T07:04:13;5;5;
72023;PMS5003;59889;50.700;5.440;2023-09-30T07:06:39;4;4;
72023;PMS5003;59889;50.700;5.440;2023-09-30T07:09:05;6;4;
72023;PMS5003;59889;50.700;5.440;2023-09-30T07:11:31;8;7;
72023;PMS5003;59889;50.700;5.440;2023-09-30T07:13:56;7;6;
72023;PMS5003;59889;50.700;5.440;2023-09-30T07:16:22;6;5;
72023;PMS5003;59889;50.700;5.440;2023-09-30T07:18:48;8;8;
72023;PMS5003;59889;50.700;5.440;2023-09-30T07:21:14;7;6;
72023;PMS5003;59889;50.700;5.440;2023-09-30T07:23:40;6;6;
72023;PMS5003;59889;50.700;5.440;2023-09-30T07:26:05;6;6;
72023;PMS5003;59889;50.700;5.440;2023-09-30T07:28:31;5;5;
72023;PMS5003;59889;50.700;5.440;2023-09-30T07:30:57;7;7;
72023;PMS5003;59889;50.700;5.440;2023-09-30T07:33:23;7;6;
72023;PMS5003;59889;50.700;5.440;2023-09-30T07:35:49;8;7;
72023;PMS5003;59889;50.700;5.440;2023-09-30T07:38:15;5;5;
72023;PMS5003;59889;50.700;5.440;2023-09-30T07:40:40;5;5;
72023;PMS5003;59889;50.700;5.440;2023-09-30T07:43:06;6;6;
72023;PMS5003;59889;50.700;5.440;2023-09-30T07:45:32;6;6;
72023;PMS5003;59889;50.700;5.440;2023-09-30T07:47:58;5;5;
72023;PMS5003;59889;50.700;5.440;2023-09-30T07:50:24;7;6;
72023;PMS5003;59889;50.700;5.440;2023-09-30T07:52:50;6;6;
72023;PMS5003;59889;50.700;5.440;2023-09-30T07:55:15;5;4;
72023;PMS5003;59889;50.700;5.440;2023-09-30T07:57:42;5;5;
72023;PMS5003;59889;50.700;5.440;2023-09-30T08:00:08;8;8;
72023;PMS5003;59889;50.700;5.440;2023-09-30T08:02:33;6;5;
72023;PMS5003;59889;50.700;5.440;2023-09-30T08:04:59;6;6;
72023;PMS5003;59889;50.700;5.440;2023-09-30T08:07:25;4;4;
72023;PMS5003;59889;50.700;5.440;2023-09-30T08:09:51;6;5;
72023;PMS5003;59889;50.700;5.440;2023-09-30T08:12:17;8;6;
72023;PMS5003;59889;50.700;5.440;2023-09-30T08:14:42;5;5;
72023;PMS5003;59889;50.700;5.440;2023-09-30T08:17:08;7;7;
72023;PMS5003;59889;50.700;5.440;2023-09-30T08:19:34;5;5;
72023;PMS5003;59889;50.700;5.440;2023-09-30T08:22:00;6;6;
72023;PMS5003;59889;50.700;5.440;2023-09-30T08:24:28;3;3;
72023;PMS5003;59889;50.700;5.440;2023-09-30T08:26:52;7;6;
72023;PMS5003;59889;50.700;5.440;2023-09-30T08:29:17;5;5;
72023;PMS5003;59889;50.700;5.440;2023-09-30T08:31:43;8;7;
72023;PMS5003;59889;50.700;5.440;2023-09-30T08:34:09;4;4;
72023;PMS5003;59889;50.700;5.440;2023-09-30T08:36:35;6;6;
72023;PMS5003;59889;50.700;5.440;2023-09-30T08:39:01;6;5;
72023;PMS5003;59889;50.700;5.440;2023-09-30T08:41:30;6;6;
72023;PMS5003;59889;50.700;5.440;2023-09-30T08:43:53;6;6;
72023;PMS5003;59889;50.700;5.440;2023-09-30T08:46:18;5;5;
72023;PMS5003;59889;50.700;5.440;2023-09-30T08:48:44;6;5;
72023;PMS5003;59889;50.700;5.440;2023-09-30T08:51:10;8;8;
72023;PMS5003;59889;50.700;5.440;2023-09-30T08:53:36;9;8;
72023;PMS5003;59889;50.700;5.440;2023-09-30T08:56:02;10;9;
72023;PMS5003;59889;50.700;5.440;2023-09-30T08:58:28;7;7;
72023;PMS5003;59889;50.700;5.440;2023-09-30T09:00:54;8;8;
72023;PMS5003;59889;50.700;5.440;2023-09-30T09:03:19;6;6;
72023;PMS5003;59889;50.700;5.440;2023-09-30T09:05:45;7;7;
72023;PMS5003;59889;50.700;5.440;2023-09-30T09:08:11;6;6;
72023;PMS5003;59889;50.700;5.440;2023-09-30T09:10:41;6;6;
72023;PMS5003;59889;50.700;5.440;2023-09-30T09:13:03;7;6;
72023;PMS5003;59889;50.700;5.440;2023-09-30T09:15:28;6;6;
72023;PMS5003;59889;50.700;5.440;2023-09-30T09:17:54;6;6;
72023;PMS5003;59889;50.700;5.440;2023-09-30T09:20:21;5;4;
72023;PMS5003;59889;50.700;5.440;2023-09-30T09:22:46;5;5;
72023;PMS5003;59889;50.700;5.440;2023-09-30T09:25:12;5;5;
72023;PMS5003;59889;50.700;5.440;2023-09-30T09:27:38;7;5;
72023;PMS5003;59889;50.700;5.440;2023-09-30T09:32:29;6;6;
72023;PMS5003;59889;50.700;5.440;2023-09-30T09:35:00;5;5;
72023;PMS5003;59889;50.700;5.440;2023-09-30T09:37:21;5;5;
72023;PMS5003;59889;50.700;5.440;2023-09-30T09:39:50;6;6;
72023;PMS5003;59889;50.700;5.440;2023-09-30T09:42:13;6;5;
72023;PMS5003;59889;50.700;5.440;2023-09-30T09:44:38;3;3;
72023;PMS5003;59889;50.700;5.440;2023-09-30T09:47:04;7;6;
72023;PMS5003;59889;50.700;5.440;2023-09-30T09:49:30;4;4;
72023;PMS5003;59889;50.700;5.440;2023-09-30T09:51:56;5;5;
72023;PMS5003;59889;50.700;5.440;2023-09-30T09:54:22;5;5;
72023;PMS5003;59889;50.700;5.440;2023-09-30T09:56:48;4;4;
72023;PMS5003;59889;50.700;5.440;2023-09-30T09:59:14;5;4;
72023;PMS5003;59889;50.700;5.440;2023-09-30T10:01:40;4;4;
72023;PMS5003;59889;50.700;5.440;2023-09-30T10:04:05;6;5;
72023;PMS5003;59889;50.700;5.440;2023-09-30T10:06:31;5;5;
72023;PMS5003;59889;50.700;5.440;2023-09-30T10:08:57;5;5;
72023;PMS5003;59889;50.700;5.440;2023-09-30T10:11:23;4;4;
72023;PMS5003;59889;50.700;5.440;2023-09-30T10:13:50;4;4;
72023;PMS5003;59889;50.700;5.440;2023-09-30T10:21:07;5;4;
72023;PMS5003;59889;50.700;5.440;2023-09-30T10:23:32;5;5;
72023;PMS5003;59889;50.700;5.440;2023-09-30T10:33:15;5;5;
72023;PMS5003;59889;50.700;5.440;2023-09-30T10:35:42;4;4;
72023;PMS5003;59889;50.700;5.440;2023-09-30T10:40:33;4;4;
72023;PMS5003;59889;50.700;5.440;2023-09-30T10:42:59;3;3;
72023;PMS5003;59889;50.700;5.440;2023-09-30T10:47:50;4;4;
72023;PMS5003;59889;50.700;5.440;2023-09-30T10:52:42;4;4;
72023;PMS5003;59889;50.700;5.440;2023-09-30T10:55:08;4;4;
72023;PMS5003;59889;50.700;5.440;2023-09-30T10:57:34;4;4;
72023;PMS5003;59889;50.700;5.440;2023-09-30T11:00:07;5;5;
72023;PMS5003;59889;50.700;5.440;2023-09-30T11:02:25;4;4;
72023;PMS5003;59889;50.700;5.440;2023-09-30T11:04:51;5;4;
72023;PMS5003;59889;50.700;5.440;2023-09-30T11:07:19;6;6;
72023;PMS5003;59889;50.700;5.440;2023-09-30T11:09:43;6;5;
72023;PMS5003;59889;50.700;5.440;2023-09-30T11:12:13;6;6;
72023;PMS5003;59889;50.700;5.440;2023-09-30T11:14:35;7;6;
72023;PMS5003;59889;50.700;5.440;2023-09-30T11:17:01;4;4;
72023;PMS5003;59889;50.700;5.440;2023-09-30T11:19:27;5;5;
72023;PMS5003;59889;50.700;5.440;2023-09-30T11:21:53;5;5;
72023;PMS5003;59889;50.700;5.440;2023-09-30T11:24:18;5;5;
72023;PMS5003;59889;50.700;5.440;2023-09-30T11:26:44;6;6;
72023;PMS5003;59889;50.700;5.440;2023-09-30T11:29:10;4;4;
72023;PMS5003;59889;50.700;5.440;2023-09-30T11:31:36;6;6;
72023;PMS5003;59889;50.700;5.440;2023-09-30T11:34:01;5;5;
72023;PMS5003;59889;50.700;5.440;2023-09-30T11:36:27;5;4;
72023;PMS5003;59889;50.700;5.440;2023-09-30T11:38:53;6;6;
72023;PMS5003;59889;50.700;5.440;2023-09-30T11:41:20;5;5;
72023;PMS5003;59889;50.700;5.440;2023-09-30T11:46:11;5;5;
72023;PMS5003;59889;50.700;5.440;2023-09-30T11:48:36;3;3;
72023;PMS5003;59889;50.700;5.440;2023-09-30T11:51:02;3;3;
72023;PMS5003;59889;50.700;5.440;2023-09-30T11:53:28;6;5;
72023;PMS5003;59889;50.700;5.440;2023-09-30T11:55:54;4;4;
72023;PMS5003;59889;50.700;5.440;2023-09-30T11:58:20;5;5;
72023;PMS5003;59889;50.700;5.440;2023-09-30T12:00:45;6;5;
72023;PMS5003;59889;50.700;5.440;2023-09-30T12:03:11;6;6;
72023;PMS5003;59889;50.700;5.440;2023-09-30T12:05:37;6;5;
72023;PMS5003;59889;50.700;5.440;2023-09-30T12:08:03;8;7;
72023;PMS5003;59889;50.700;5.440;2023-09-30T12:10:29;5;5;
72023;PMS5003;59889;50.700;5.440;2023-09-30T12:12:54;6;5;
72023;PMS5003;59889;50.700;5.440;2023-09-30T12:15:20;5;5;
72023;PMS5003;59889;50.700;5.440;2023-09-30T12:17:46;6;6;
72023;PMS5003;59889;50.700;5.440;2023-09-30T12:20:12;7;5;
72023;PMS5003;59889;50.700;5.440;2023-09-30T12:22:38;7;6;
72023;PMS5003;59889;50.700;5.440;2023-09-30T12:25:04;7;7;
72023;PMS5003;59889;50.700;5.440;2023-09-30T12:27:29;5;5;
72023;PMS5003;59889;50.700;5.440;2023-09-30T12:29:55;8;5;
72023;PMS5003;59889;50.700;5.440;2023-09-30T12:32:21;4;4;
72023;PMS5003;59889;50.700;5.440;2023-09-30T12:34:47;6;5;
72023;PMS5003;59889;50.700;5.440;2023-09-30T12:37:13;6;5;
72023;PMS5003;59889;50.700;5.440;2023-09-30T12:39:39;6;6;
72023;PMS5003;59889;50.700;5.440;2023-09-30T12:42:05;5;5;
72023;PMS5003;59889;50.700;5.440;2023-09-30T12:44:30;5;5;
72023;PMS5003;59889;50.700;5.440;2023-09-30T12:46:56;6;4;
72023;PMS5003;59889;50.700;5.440;2023-09-30T12:49:22;6;6;
72023;PMS5003;59889;50.700;5.440;2023-09-30T12:51:48;7;7;
72023;PMS5003;59889;50.700;5.440;2023-09-30T12:54:14;6;6;
72023;PMS5003;59889;50.700;5.440;2023-09-30T12:56:40;7;6;
72023;PMS5003;59889;50.700;5.440;2023-09-30T12:59:06;8;6;
72023;PMS5003;59889;50.700;5.440;2023-09-30T13:01:31;6;6;
72023;PMS5003;59889;50.700;5.440;2023-09-30T13:03:57;4;4;
72023;PMS5003;59889;50.700;5.440;2023-09-30T13:06:23;7;7;
72023;PMS5003;59889;50.700;5.440;2023-09-30T13:08:49;6;5;
72023;PMS5003;59889;50.700;5.440;2023-09-30T13:11:15;6;6;
72023;PMS5003;59889;50.700;5.440;2023-09-30T13:13:41;6;6;
72023;PMS5003;59889;50.700;5.440;2023-09-30T13:16:09;5;5;
72023;PMS5003;59889;50.700;5.440;2023-09-30T13:18:32;6;5;
72023;PMS5003;59889;50.700;5.440;2023-09-30T13:20:58;8;7;
72023;PMS5003;59889;50.700;5.440;2023-09-30T13:23:24;6;6;
72023;PMS5003;59889;50.700;5.440;2023-09-30T13:25:50;4;3;
72023;PMS5003;59889;50.700;5.440;2023-09-30T13:28:16;7;6;
72023;PMS5003;59889;50.700;5.440;2023-09-30T13:30:42;6;6;
72023;PMS5003;59889;50.700;5.440;2023-09-30T13:33:08;7;6;
72023;PMS5003;59889;50.700;5.440;2023-09-30T13:35:33;7;6;
72023;PMS5003;59889;50.700;5.440;2023-09-30T13:37:59;6;5;
72023;PMS5003;59889;50.700;5.440;2023-09-30T13:40:25;5;5;
72023;PMS5003;59889;50.700;5.440;2023-09-30T13:42:51;4;4;
72023;PMS5003;59889;50.700;5.440;2023-09-30T13:45:18;9;8;
72023;PMS5003;59889;50.700;5.440;2023-09-30T13:47:43;7;6;
72023;PMS5003;59889;50.700;5.440;2023-09-30T13:50:08;6;6;
72023;PMS5003;59889;50.700;5.440;2023-09-30T13:52:34;7;6;
72023;PMS5003;59889;50.700;5.440;2023-09-30T13:55:00;5;5;
72023;PMS5003;59889;50.700;5.440;2023-09-30T13:57:26;7;7;
72023;PMS5003;59889;50.700;5.440;2023-09-30T13:59:52;6;6;
72023;PMS5003;59889;50.700;5.440;2023-09-30T14:02:19;3;3;
72023;PMS5003;59889;50.700;5.440;2023-09-30T14:04:43;7;7;
72023;PMS5003;59889;50.700;5.440;2023-09-30T14:07:09;6;5;
72023;PMS5003;59889;50.700;5.440;2023-09-30T14:09:35;6;5;
72023;PMS5003;59889;50.700;5.440;2023-09-30T14:12:01;5;5;
72023;PMS5003;59889;50.700;5.440;2023-09-30T14:14:27;6;6;
72023;PMS5003;59889;50.700;5.440;2023-09-30T14:16:53;7;5;
72023;PMS5003;59889;50.700;5.440;2023-09-30T14:19:20;6;6;
72023;PMS5003;59889;50.700;5.440;2023-09-30T14:21:44;6;6;
72023;PMS5003;59889;50.700;5.440;2023-09-30T14:24:10;6;6;
72023;PMS5003;59889;50.700;5.440;2023-09-30T14:26:36;6;5;
72023;PMS5003;59889;50.700;5.440;2023-09-30T14:29:02;6;6;
72023;PMS5003;59889;50.700;5.440;2023-09-30T14:31:28;6;6;
72023;PMS5003;59889;50.700;5.440;2023-09-30T14:33:54;6;5;
72023;PMS5003;59889;50.700;5.440;2023-09-30T14:36:20;5;4;
72023;PMS5003;59889;50.700;5.440;2023-09-30T14:38:45;7;6;
72023;PMS5003;59889;50.700;5.440;2023-09-30T14:41:11;7;6;
72023;PMS5003;59889;50.700;5.440;2023-09-30T14:43:37;5;4;
72023;PMS5003;59889;50.700;5.440;2023-09-30T14:46:02;7;6;
72023;PMS5003;59889;50.700;5.440;2023-09-30T14:48:28;5;5;
72023;PMS5003;59889;50.700;5.440;2023-09-30T14:50:54;8;7;
72023;PMS5003;59889;50.700;5.440;2023-09-30T14:53:20;5;4;
72023;PMS5003;59889;50.700;5.440;2023-09-30T14:55:46;6;5;
72023;PMS5003;59889;50.700;5.440;2023-09-30T14:58:12;5;5;
72023;PMS5003;59889;50.700;5.440;2023-09-30T15:00:38;4;4;
72023;PMS5003;59889;50.700;5.440;2023-09-30T15:03:03;4;4;
72023;PMS5003;59889;50.700;5.440;2023-09-30T15:05:29;5;5;
72023;PMS5003;59889;50.700;5.440;2023-09-30T15:07:55;3;3;
72023;PMS5003;59889;50.700;5.440;2023-09-30T15:10:21;6;5;
72023;PMS5003;59889;50.700;5.440;2023-09-30T15:12:47;6;5;
72023;PMS5003;59889;50.700;5.440;2023-09-30T15:15:13;3;3;
72023;PMS5003;59889;50.700;5.440;2023-09-30T15:17:38;5;4;
72023;PMS5003;59889;50.700;5.440;2023-09-30T15:20:04;5;5;
72023;PMS5003;59889;50.700;5.440;2023-09-30T15:22:31;4;3;
72023;PMS5003;59889;50.700;5.440;2023-09-30T15:24:56;5;4;
72023;PMS5003;59889;50.700;5.440;2023-09-30T15:27:22;5;5;
72023;PMS5003;59889;50.700;5.440;2023-09-30T15:29:47;6;6;
72023;PMS5003;59889;50.700;5.440;2023-09-30T15:32:13;4;4;
72023;PMS5003;59889;50.700;5.440;2023-09-30T15:34:39;5;5;
72023;PMS5003;59889;50.700;5.440;2023-09-30T15:37:05;4;4;
72023;PMS5003;59889;50.700;5.440;2023-09-30T15:39:31;3;3;
72023;PMS5003;59889;50.700;5.440;2023-09-30T15:41:57;4;4;
72023;PMS5003;59889;50.700;5.440;2023-09-30T15:44:23;3;3;
72023;PMS5003;59889;50.700;5.440;2023-09-30T15:46:48;4;4;
72023;PMS5003;59889;50.700;5.440;2023-09-30T15:49:14;4;4;
72023;PMS5003;59889;50.700;5.440;2023-09-30T15:51:40;3;3;
72023;PMS5003;59889;50.700;5.440;2023-09-30T15:54:06;4;4;
72023;PMS5003;59889;50.700;5.440;2023-09-30T15:56:32;3;3;
72023;PMS5003;59889;50.700;5.440;2023-09-30T15:58:58;4;3;
72023;PMS5003;59889;50.700;5.440;2023-09-30T16:01:23;3;3;
72023;PMS5003;59889;50.700;5.440;2023-09-30T16:03:49;4;4;
72023;PMS5003;59889;50.700;5.440;2023-09-30T16:06:15;4;4;
72023;PMS5003;59889;50.700;5.440;2023-09-30T16:08:41;4;4;
72023;PMS5003;59889;50.700;5.440;2023-09-30T16:11:07;7;4;
72023;PMS5003;59889;50.700;5.440;2023-09-30T16:13:33;4;4;
72023;PMS5003;59889;50.700;5.440;2023-09-30T16:15:59;3;3;
72023;PMS5003;59889;50.700;5.440;2023-09-30T16:18:24;5;4;
72023;PMS5003;59889;50.700;5.440;2023-09-30T16:20:50;3;3;
72023;PMS5003;59889;50.700;5.440;2023-09-30T16:23:16;4;3;
72023;PMS5003;59889;50.700;5.440;2023-09-30T16:25:42;4;3;
72023;PMS5003;59889;50.700;5.440;2023-09-30T16:28:08;3;3;
72023;PMS5003;59889;50.700;5.440;2023-09-30T16:30:34;5;5;
72023;PMS5003;59889;50.700;5.440;2023-09-30T16:33:00;3;3;
72023;PMS5003;59889;50.700;5.440;2023-09-30T16:35:26;3;3;
72023;PMS5003;59889;50.700;5.440;2023-09-30T16:37:51;4;4;
72023;PMS5003;59889;50.700;5.440;2023-09-30T16:40:17;3;2;
72023;PMS5003;59889;50.700;5.440;2023-09-30T16:42:43;5;3;
72023;PMS5003;59889;50.700;5.440;2023-09-30T16:45:09;3;3;
72023;PMS5003;59889;50.700;5.440;2023-09-30T16:47:35;3;3;
72023;PMS5003;59889;50.700;5.440;2023-09-30T16:50:01;3;3;
72023;PMS5003;59889;50.700;5.440;2023-09-30T16:52:26;4;4;
72023;PMS5003;59889;50.700;5.440;2023-09-30T16:54:52;3;3;
72023;PMS5003;59889;50.700;5.440;2023-09-30T16:57:19;5;5;
72023;PMS5003;59889;50.700;5.440;2023-09-30T16:59:44;5;4;
72023;PMS5003;59889;50.700;5.440;2023-09-30T17:02:10;5;4;
72023;PMS5003;59889;50.700;5.440;2023-09-30T17:04:36;7;4;
72023;PMS5003;59889;50.700;5.440;2023-09-30T17:07:01;5;4;